createdAt,value
2023-12-02T00:01:51.518Z,100513.75
2023-12-02T00:07:13.045Z,100515.84
2023-12-02T00:09:45.780Z,100518.25
2023-12-02T00:12:18.770Z,100512.06
2023-12-02T00:14:51.989Z,100516.75
2023-12-02T00:17:27.165Z,100507.59
2023-12-02T00:20:01.814Z,100515.09
2023-12-02T00:22:34.781Z,100507.13
2023-12-02T00:25:10.701Z,100509.22
2023-12-02T00:27:43.862Z,100504.81
2023-12-02T00:30:16.996Z,100497.91
2023-12-02T00:32:50.387Z,100500.88
2023-12-02T00:35:24.867Z,100501.03
2023-12-02T00:37:58.322Z,100497.91
2023-12-02T00:40:31.189Z,100501.28
2023-12-02T00:43:06.751Z,100494.78
2023-12-02T00:45:39.818Z,100497.00
2023-12-02T00:48:13.773Z,100489.19
2023-12-02T00:50:48.215Z,100496.41
2023-12-02T00:53:22.063Z,100500.47
2023-12-02T00:55:57.888Z,100491.75
2023-12-02T00:58:38.468Z,100491.88
2023-12-02T01:01:15.587Z,100492.03
2023-12-02T01:03:48.673Z,100492.44
2023-12-02T01:06:23.368Z,100488.72
2023-12-02T01:08:56.505Z,100492.03
2023-12-02T01:11:29.513Z,100497.00
2023-12-02T01:14:02.614Z,100491.47
2023-12-02T01:16:35.477Z,100490.84
2023-12-02T01:19:08.385Z,100492.84
2023-12-02T01:21:42.651Z,100499.25
2023-12-02T01:24:18.689Z,100494.84
2023-12-02T01:26:51.673Z,100495.75
2023-12-02T01:29:24.613Z,100495.91
2023-12-02T01:31:57.491Z,100494.13
2023-12-02T01:34:30.576Z,100497.91
2023-12-02T01:37:05.146Z,100504.69
2023-12-02T01:39:37.972Z,100507.88
2023-12-02T01:42:11.482Z,100507.72
2023-12-02T01:44:44.928Z,100502.75
2023-12-02T01:47:18.241Z,100500.81
2023-12-02T01:49:52.952Z,100499.28
2023-12-02T01:52:29.223Z,100494.31
2023-12-02T01:55:02.224Z,100499.84
2023-12-02T01:57:35.722Z,100496.03
2023-12-02T02:00:10.893Z,100501.13
2023-12-02T02:02:44.728Z,100500.38
2023-12-02T02:05:19.298Z,100499.34
2023-12-02T02:07:53.410Z,100502.47
2023-12-02T02:10:26.705Z,100505.16
2023-12-02T02:12:59.510Z,100496.31
2023-12-02T02:15:32.369Z,100504.13
2023-12-02T02:18:05.668Z,100501.44
2023-12-02T02:20:39.708Z,100499.03
2023-12-02T02:23:14.304Z,100499.75
2023-12-02T02:25:47.470Z,100503.69
2023-12-02T02:28:22.335Z,100497.06
2023-12-02T02:30:56.032Z,100502.66
2023-12-02T02:33:28.950Z,100507.25
2023-12-02T02:36:02.065Z,100505.97
2023-12-02T02:38:36.491Z,100502.75
2023-12-02T02:41:10.690Z,100502.59
2023-12-02T02:43:43.585Z,100501.84
2023-12-02T02:46:16.568Z,100496.03
2023-12-02T02:48:49.546Z,100500.72
2023-12-02T02:51:23.216Z,100499.19
2023-12-02T02:53:57.731Z,100500.84
2023-12-02T02:56:31.164Z,100504.31
2023-12-02T02:59:04.666Z,100505.56
2023-12-02T03:01:38.330Z,100500.88
2023-12-02T03:04:11.456Z,100505.50
2023-12-02T03:06:44.612Z,100506.13
2023-12-02T03:09:20.193Z,100506.41
2023-12-02T03:11:54.699Z,100499.97
2023-12-02T03:14:28.280Z,100495.56
2023-12-02T03:17:01.283Z,100495.75
2023-12-02T03:19:34.377Z,100501.75
2023-12-02T03:22:07.234Z,100499.97
2023-12-02T03:24:41.496Z,100499.53
2023-12-02T03:27:14.547Z,100504.47
2023-12-02T03:29:47.417Z,100504.78
2023-12-02T03:32:20.615Z,100505.97
2023-12-02T03:34:53.545Z,100503.00
2023-12-02T03:37:26.294Z,100504.47
2023-12-02T03:40:02.027Z,100498.00
2023-12-02T03:42:36.962Z,100503.56
2023-12-02T03:45:11.302Z,100502.66
2023-12-02T03:47:44.252Z,100503.28
2023-12-02T03:50:18.195Z,100500.38
2023-12-02T03:52:51.371Z,100505.56
2023-12-02T03:55:25.554Z,100501.47
2023-12-02T03:57:58.401Z,100501.34
2023-12-02T04:00:31.426Z,100511.44
2023-12-02T04:03:04.391Z,100510.97
2023-12-02T04:05:38.015Z,100507.66
2023-12-02T04:08:11.077Z,100519.97
2023-12-02T04:10:47.897Z,100515.31
2023-12-02T04:13:21.432Z,100507.94
2023-12-02T04:15:54.420Z,100514.09
2023-12-02T04:18:27.635Z,100514.72
2023-12-02T04:21:01.566Z,100510.34
2023-12-02T04:23:34.924Z,100510.63
2023-12-02T04:26:09.283Z,100513.34
2023-12-02T04:28:42.015Z,100509.13
2023-12-02T04:31:14.866Z,100517.13
2023-12-02T04:33:47.854Z,100508.25
2023-12-02T04:36:22.456Z,100515.63
2023-12-02T04:38:55.451Z,100513.06
2023-12-02T04:41:29.634Z,100526.16
2023-12-02T04:44:02.803Z,100519.06
2023-12-02T04:46:35.860Z,100526.19
2023-12-02T04:49:08.897Z,100529.03
2023-12-02T04:51:44.083Z,100541.41
2023-12-02T04:54:17.227Z,100534.28
2023-12-02T04:56:54.864Z,100526.19
2023-12-02T04:59:28.151Z,100532.63
2023-12-02T05:02:01.194Z,100539.09
2023-12-02T05:04:34.137Z,100537.00
2023-12-02T05:07:07.141Z,100537.63
2023-12-02T05:09:40.149Z,100534.09
2023-12-02T05:12:15.701Z,100537.09
2023-12-02T05:14:48.686Z,100542.97
2023-12-02T05:17:21.516Z,100534.72
2023-12-02T05:19:54.425Z,100537.75
2023-12-02T05:22:27.612Z,100537.91
2023-12-02T05:25:00.814Z,100536.09
2023-12-02T05:27:35.318Z,100541.06
2023-12-02T05:30:10.721Z,100537.75
2023-12-02T05:32:44.336Z,100540.13
2023-12-02T05:35:17.537Z,100540.75
2023-12-02T05:37:51.821Z,100547.81
2023-12-02T05:40:24.757Z,100545.13
2023-12-02T05:42:59.054Z,100542.88
2023-12-02T05:45:32.445Z,100538.38
2023-12-02T05:48:06.561Z,100537.91
2023-12-02T05:50:39.850Z,100540.19
2023-12-02T05:53:12.737Z,100549.81
2023-12-02T05:55:45.824Z,100543.31
2023-12-02T05:58:20.496Z,100547.53
2023-12-02T06:00:54.793Z,100541.47
2023-12-02T06:03:28.145Z,100547.34
2023-12-02T06:06:01.226Z,100543.31
2023-12-02T06:08:36.395Z,100542.25
2023-12-02T06:11:09.161Z,100552.94
2023-12-02T06:13:43.977Z,100555.50
2023-12-02T06:16:16.906Z,100553.69
2023-12-02T06:18:50.144Z,100555.34
2023-12-02T06:21:23.314Z,100564.53
2023-12-02T06:23:56.208Z,100561.97
2023-12-02T06:26:29.282Z,100564.19
2023-12-02T06:29:03.918Z,100570.22
2023-12-02T06:31:36.881Z,100570.06
2023-12-02T06:34:10.100Z,100570.69
2023-12-02T06:36:48.514Z,100578.22
2023-12-02T06:39:24.486Z,100577.00
2023-12-02T06:41:57.478Z,100577.00
2023-12-02T06:44:34.130Z,100578.19
2023-12-02T06:47:07.392Z,100583.78
2023-12-02T06:49:41.931Z,100583.78
2023-12-02T06:52:15.407Z,100586.81
2023-12-02T06:55:31.315Z,100589.38
2023-12-02T06:57:43.182Z,100595.69
2023-12-02T07:00:20.047Z,100600.97
2023-12-02T07:02:56.629Z,100600.50
2023-12-02T07:05:30.974Z,100601.84
2023-12-02T07:08:06.008Z,100606.09
2023-12-02T07:10:39.650Z,100613.91
2023-12-02T07:13:15.084Z,100612.81
2023-12-02T07:15:50.184Z,100620.22
2023-12-02T07:18:24.370Z,100621.31
2023-12-02T07:20:57.256Z,100625.97
2023-12-02T07:23:31.034Z,100625.34
2023-12-02T07:26:05.910Z,100633.50
2023-12-02T07:28:39.435Z,100631.97
2023-12-02T07:31:15.763Z,100633.63
2023-12-02T07:33:48.951Z,100642.06
2023-12-02T07:36:22.093Z,100644.47
2023-12-02T07:38:54.958Z,100643.28
2023-12-02T07:41:31.275Z,100638.03
2023-12-02T07:44:13.644Z,100643.47
2023-12-02T07:46:50.581Z,100647.25
2023-12-02T07:49:28.280Z,100643.94
2023-12-02T07:52:08.011Z,100650.88
2023-12-02T07:54:44.510Z,100652.50
2023-12-02T07:57:18.218Z,100647.38
2023-12-02T07:59:51.328Z,100649.63
2023-12-02T08:02:26.525Z,100659.56
2023-12-02T08:07:35.736Z,100660.19
2023-12-02T08:10:12.629Z,100663.31
2023-12-02T08:12:45.854Z,100664.03
2023-12-02T08:15:19.293Z,100672.03
2023-12-02T08:17:54.065Z,100664.81
2023-12-02T08:20:28.006Z,100673.44
2023-12-02T08:23:00.923Z,100677.66
2023-12-02T08:25:34.262Z,100689.88
2023-12-02T08:28:07.251Z,100680.97
2023-12-02T08:30:40.079Z,100684.41
2023-12-02T08:33:14.461Z,100689.69
2023-12-02T08:35:47.378Z,100694.53
2023-12-02T08:38:20.267Z,100693.00
2023-12-02T08:40:53.806Z,100695.59
2023-12-02T08:43:28.941Z,100703.44
2023-12-02T08:46:02.295Z,100702.81
2023-12-02T08:48:36.623Z,100708.09
2023-12-02T08:51:12.635Z,100712.75
2023-12-02T08:53:45.943Z,100711.41
2023-12-02T08:56:18.996Z,100715.63
2023-12-02T08:58:52.466Z,100720.16
2023-12-02T09:01:25.757Z,100715.59
2023-12-02T09:04:00.484Z,100727.09
2023-12-02T09:06:39.115Z,100729.97
2023-12-02T09:09:13.502Z,100726.03
2023-12-02T09:11:46.684Z,100730.22
2023-12-02T09:14:20.316Z,100733.25
2023-12-02T09:16:53.511Z,100735.69
2023-12-02T09:19:54.847Z,100733.84
2023-12-02T09:22:47.725Z,100730.38
2023-12-02T09:25:30.526Z,100733.41
2023-12-02T09:28:19.268Z,100736.72
2023-12-02T09:31:06.590Z,100743.34
2023-12-02T09:33:42.411Z,100736.56
2023-12-02T09:36:37.744Z,100743.63
2023-12-02T09:39:59.001Z,100743.91
2023-12-02T09:42:31.832Z,100743.97
2023-12-02T09:45:08.633Z,100736.41
2023-12-02T09:47:48.777Z,100736.41
2023-12-02T09:50:30.373Z,100736.88
2023-12-02T09:53:18.164Z,100732.66
2023-12-02T09:55:56.476Z,100730.81
2023-12-02T09:58:39.811Z,100731.09
2023-12-02T10:01:23.546Z,100732.16
2023-12-02T10:04:05.278Z,100724.63
2023-12-02T10:07:00.218Z,100727.06
2023-12-02T10:09:50.757Z,100733.94
2023-12-02T10:12:38.459Z,100746.00
2023-12-02T10:15:13.607Z,100738.16
2023-12-02T10:17:52.001Z,100748.44
2023-12-02T10:20:29.336Z,100746.44
2023-12-02T10:23:12.729Z,100739.78
2023-12-02T10:26:00.015Z,100745.97
2023-12-02T10:28:45.367Z,100738.81
2023-12-02T10:31:27.464Z,100742.25
2023-12-02T10:34:14.805Z,100736.50
2023-12-02T10:36:52.328Z,100736.34
2023-12-02T10:39:36.284Z,100738.63
2023-12-02T10:42:22.579Z,100739.66
2023-12-02T10:45:05.477Z,100736.69
2023-12-02T10:47:42.729Z,100744.03
2023-12-02T10:50:17.856Z,100744.03
2023-12-02T10:52:59.868Z,100741.25
2023-12-02T10:55:37.262Z,100742.25
2023-12-02T10:58:12.240Z,100736.34
2023-12-02T11:00:48.420Z,100740.00
2023-12-02T11:03:29.253Z,100740.84
2023-12-02T11:06:07.716Z,100735.91
2023-12-02T11:08:50.296Z,100734.41
2023-12-02T11:11:40.072Z,100738.59
2023-12-02T11:14:17.738Z,100738.91
2023-12-02T11:17:04.057Z,100740.44
2023-12-02T11:20:06.422Z,100737.09
2023-12-02T11:23:15.859Z,100738.78
2023-12-02T11:26:04.839Z,100737.66
2023-12-02T11:28:45.487Z,100738.69
2023-12-02T11:31:34.686Z,100747.16
2023-12-02T11:34:25.201Z,100751.63
2023-12-02T11:37:08.970Z,100745.56
2023-12-02T11:39:51.827Z,100740.38
2023-12-02T11:42:32.781Z,100748.19
2023-12-02T11:45:13.311Z,100739.31
2023-12-02T11:48:15.365Z,100744.44
2023-12-02T11:51:11.562Z,100747.16
2023-12-02T11:54:01.025Z,100745.16
2023-12-02T11:56:43.237Z,100754.22
2023-12-02T11:59:18.777Z,100754.84
2023-12-02T12:02:04.476Z,100751.66
2023-12-02T12:05:05.281Z,100755.28
2023-12-02T12:07:50.410Z,100749.88
2023-12-02T12:10:29.379Z,100747.34
2023-12-02T12:13:02.755Z,100745.41
2023-12-02T12:15:36.234Z,100749.75
2023-12-02T12:18:10.013Z,100743.41
2023-12-02T12:20:47.510Z,100745.97
2023-12-02T12:23:24.141Z,100750.16
2023-12-02T12:25:58.248Z,100751.75
2023-12-02T12:28:36.293Z,100748.63
2023-12-02T12:31:11.059Z,100748.81
2023-12-02T12:33:50.456Z,100752.28
2023-12-02T12:36:29.116Z,100751.91
2023-12-02T12:39:02.999Z,100754.59
2023-12-02T12:44:27.601Z,100760.31
2023-12-02T12:47:00.683Z,100761.50
2023-12-02T12:49:35.932Z,100760.06
2023-12-02T12:52:12.177Z,100759.09
2023-12-02T12:54:52.764Z,100755.84
2023-12-02T12:57:33.744Z,100755.19
2023-12-02T13:00:11.514Z,100764.22
2023-12-02T13:03:00.779Z,100760.19
2023-12-02T13:05:40.541Z,100763.31
2023-12-02T13:08:26.418Z,100764.72
2023-12-02T13:11:12.003Z,100771.38
2023-12-02T13:13:58.920Z,100774.63
2023-12-02T13:16:33.760Z,100780.69
2023-12-02T13:19:09.710Z,100781.91
2023-12-02T13:21:44.804Z,100774.97
2023-12-02T13:24:21.025Z,100776.50
2023-12-02T13:26:55.614Z,100779.50
2023-12-02T13:29:29.114Z,100789.28
2023-12-02T13:32:02.595Z,100785.81
2023-12-02T13:34:46.826Z,100791.78
2023-12-02T13:37:31.014Z,100779.41
2023-12-02T13:40:10.372Z,100790.44
2023-12-02T13:42:46.831Z,100804.00
2023-12-02T13:45:23.236Z,100792.09
2023-12-02T13:48:06.142Z,100793.59
2023-12-02T13:50:51.454Z,100796.94
2023-12-02T13:53:38.608Z,100794.13
2023-12-02T13:56:25.176Z,100802.13
2023-12-02T13:59:11.414Z,100801.41
2023-12-02T14:01:53.497Z,100804.78
2023-12-02T14:04:46.942Z,100813.06
2023-12-02T14:07:24.509Z,100815.34
2023-12-02T14:09:58.154Z,100820.47
2023-12-02T14:12:48.649Z,100817.28
2023-12-02T14:15:48.726Z,100822.72
2023-12-02T14:18:49.341Z,100829.97
2023-12-02T14:21:35.528Z,100833.63
2023-12-02T14:24:33.285Z,100833.00
2023-12-02T14:27:25.796Z,100840.28
2023-12-02T14:30:26.641Z,100841.94
2023-12-02T14:33:36.987Z,100844.94
2023-12-02T14:36:18.279Z,100839.19
2023-12-02T14:39:19.679Z,100852.50
2023-12-02T14:42:09.118Z,100849.31
2023-12-02T14:44:43.790Z,100862.28
2023-12-02T14:47:18.237Z,100857.78
2023-12-02T14:49:51.875Z,100867.28
2023-12-02T14:52:26.817Z,100877.88
2023-12-02T14:55:00.888Z,100877.88
2023-12-02T14:57:34.039Z,100883.44
2023-12-02T15:00:10.421Z,100889.94
2023-12-02T15:02:52.844Z,100892.97
2023-12-02T15:05:32.102Z,100905.03
2023-12-02T15:08:07.226Z,100909.25
2023-12-02T15:10:45.723Z,100912.13
2023-12-02T15:13:25.057Z,100918.00
2023-12-02T15:16:02.136Z,100923.28
2023-12-02T15:18:38.652Z,100927.69
2023-12-02T15:21:13.878Z,100928.72
2023-12-02T15:23:47.995Z,100933.41
2023-12-02T15:26:21.749Z,100932.19
2023-12-02T15:28:55.955Z,100953.47
2023-12-02T15:31:32.846Z,100956.06
2023-12-02T15:34:10.915Z,100962.22
2023-12-02T15:36:44.416Z,100969.59
2023-12-02T15:39:22.017Z,100969.00
2023-12-02T15:41:54.945Z,100980.94
2023-12-02T15:44:28.170Z,100981.38
2023-12-02T15:47:02.971Z,100986.81
2023-12-02T15:49:37.917Z,100988.31
2023-12-02T15:52:11.507Z,100990.28
2023-12-02T15:54:46.138Z,100998.13
2023-12-02T15:57:19.441Z,100994.97
2023-12-02T15:59:53.457Z,100994.81
2023-12-02T16:02:26.990Z,101005.03
2023-12-02T16:05:02.304Z,101004.72
2023-12-02T16:07:36.744Z,101011.97
2023-12-02T16:10:15.723Z,101013.63
2023-12-02T16:12:49.966Z,101027.81
2023-12-02T16:15:28.547Z,101025.38
2023-12-02T16:18:01.965Z,101029.91
2023-12-02T16:20:36.322Z,101029.59
2023-12-02T16:23:09.305Z,101035.03
2023-12-02T16:25:43.577Z,101046.78
2023-12-02T16:28:17.554Z,101047.34
2023-12-02T16:30:53.036Z,101049.91
2023-12-02T16:33:26.405Z,101051.31
2023-12-02T16:36:03.595Z,101045.28
2023-12-02T16:38:38.636Z,101053.28
2023-12-02T16:41:14.079Z,101051.63
2023-12-02T16:43:48.131Z,101056.75
2023-12-02T16:46:22.165Z,101059.78
2023-12-02T16:48:55.234Z,101063.44
2023-12-02T16:51:29.505Z,101068.13
2023-12-02T16:54:03.966Z,101066.16
2023-12-02T16:56:37.192Z,101070.78
2023-12-02T16:59:30.661Z,101070.94
2023-12-02T17:02:03.623Z,101079.84
2023-12-02T17:04:38.977Z,101082.84
2023-12-02T17:07:13.464Z,101084.19
2023-12-02T17:09:47.264Z,101081.63
2023-12-02T17:12:22.050Z,101081.91
2023-12-02T17:15:03.992Z,101084.31
2023-12-02T17:17:38.984Z,101086.38
2023-12-02T17:20:17.601Z,101091.84
2023-12-02T17:22:52.697Z,101077.91
2023-12-02T17:25:49.919Z,101084.25
2023-12-02T17:28:26.402Z,101089.38
2023-12-02T17:31:01.213Z,101089.66
2023-12-02T17:33:34.487Z,101095.50
2023-12-02T17:36:08.871Z,101093.66
2023-12-02T17:38:43.488Z,101092.00
2023-12-02T17:41:17.731Z,101093.13
2023-12-02T17:43:50.706Z,101100.22
2023-12-02T17:46:25.504Z,101088.47
2023-12-02T17:48:59.999Z,101095.09
2023-12-02T17:51:35.605Z,101100.22
2023-12-02T17:54:11.038Z,101098.72
2023-12-02T17:56:44.634Z,101094.94
2023-12-02T17:59:17.588Z,101100.38
2023-12-02T18:01:52.338Z,101093.34
2023-12-02T18:04:25.219Z,101095.16
2023-12-02T18:07:01.865Z,101099.81
2023-12-02T18:09:36.519Z,101098.44
2023-12-02T18:12:09.907Z,101102.81
2023-12-02T18:14:43.004Z,101100.22
2023-12-02T18:17:18.453Z,101091.78
2023-12-02T18:19:51.590Z,101096.75
2023-12-02T18:22:25.155Z,101096.16
2023-12-02T18:24:59.642Z,101092.03
2023-12-02T18:27:33.840Z,101096.25
2023-12-02T18:30:07.946Z,101096.75
2023-12-02T18:32:41.014Z,101097.81
2023-12-02T18:35:14.003Z,101097.06
2023-12-02T18:37:47.433Z,101100.84
2023-12-02T18:40:23.345Z,101101.88
2023-12-02T18:42:56.517Z,101103.88
2023-12-02T18:45:37.249Z,101113.81
2023-12-02T18:48:11.409Z,101112.16
2023-12-02T18:50:44.447Z,101112.16
2023-12-02T18:53:18.776Z,101114.91
2023-12-02T18:55:53.891Z,101117.00
2023-12-02T18:58:28.909Z,101127.69
2023-12-02T19:01:02.129Z,101124.50
2023-12-02T19:03:36.657Z,101124.50
2023-12-02T19:06:12.430Z,101136.00
2023-12-02T19:08:46.215Z,101139.75
2023-12-02T19:11:22.817Z,101143.47
2023-12-02T19:13:55.778Z,101143.16
2023-12-02T19:16:29.857Z,101145.28
2023-12-02T19:19:04.063Z,101158.00
2023-12-02T19:21:41.573Z,101147.25
2023-12-02T19:24:15.611Z,101146.06
2023-12-02T19:26:53.806Z,101149.38
2023-12-02T19:29:27.934Z,101147.78
2023-12-02T19:32:02.384Z,101143.19
2023-12-02T19:34:35.595Z,101154.38
2023-12-02T19:37:09.517Z,101158.47
2023-12-02T19:39:43.203Z,101158.25
2023-12-02T19:42:17.815Z,101156.81
2023-12-02T19:44:51.175Z,101167.59
2023-12-02T19:47:24.860Z,101162.09
2023-12-02T19:50:01.580Z,101164.88
2023-12-02T19:52:35.406Z,101173.22
2023-12-02T19:55:09.912Z,101179.16
2023-12-02T19:57:45.367Z,101176.56
2023-12-02T20:03:12.041Z,101189.19
2023-12-02T20:05:48.764Z,101194.19
2023-12-02T20:08:22.005Z,101190.28
2023-12-02T20:10:55.019Z,101194.13
2023-12-02T20:13:30.235Z,101196.84
2023-12-02T20:16:04.374Z,101197.47
2023-12-02T20:18:39.595Z,101195.06
2023-12-02T20:21:16.642Z,101203.22
2023-12-02T20:23:50.089Z,101205.91
2023-12-02T20:26:24.643Z,101197.00
2023-12-02T20:28:59.478Z,101206.50
2023-12-02T20:31:37.310Z,101206.66
2023-12-02T20:34:10.481Z,101207.25
2023-12-02T20:36:43.888Z,101206.34
2023-12-02T20:39:17.172Z,101213.13
2023-12-02T20:41:50.783Z,101218.59
2023-12-02T20:44:25.046Z,101224.56
2023-12-02T20:46:58.855Z,101219.00
2023-12-02T20:49:34.524Z,101222.63
2023-12-02T20:52:10.647Z,101226.09
2023-12-02T20:54:44.462Z,101225.34
2023-12-02T20:57:17.784Z,101235.16
2023-12-02T20:59:52.658Z,101243.28
2023-12-02T21:02:26.269Z,101247.72
2023-12-02T21:04:59.455Z,101237.16
2023-12-02T21:07:33.755Z,101233.03
2023-12-02T21:10:08.898Z,101235.75
2023-12-02T21:12:43.772Z,101243.13
2023-12-02T21:15:18.499Z,101238.06
2023-12-02T21:17:55.272Z,101246.22
2023-12-02T21:20:29.768Z,101251.03
2023-12-02T21:23:02.683Z,101241.38
2023-12-02T21:25:38.702Z,101245.25
2023-12-02T21:28:12.539Z,101244.63
2023-12-02T21:30:48.460Z,101234.59
2023-12-02T21:33:21.738Z,101240.63
2023-12-02T21:35:56.387Z,101249.06
2023-12-02T21:38:44.598Z,101249.44
2023-12-02T21:41:20.678Z,101251.72
2023-12-02T21:43:56.662Z,101250.91
2023-12-02T21:46:31.460Z,101253.88
2023-12-02T21:49:12.463Z,101252.06
2023-12-02T21:51:50.807Z,101255.53
2023-12-02T21:54:24.447Z,101252.16
2023-12-02T21:57:00.381Z,101249.88
2023-12-02T21:59:36.560Z,101255.47
2023-12-02T22:02:22.598Z,101266.97
2023-12-02T22:04:55.828Z,101258.84
2023-12-02T22:07:31.219Z,101262.16
2023-12-02T22:10:06.814Z,101267.75
2023-12-02T22:12:44.488Z,101272.56
2023-12-02T22:15:23.287Z,101278.38
2023-12-02T22:17:57.383Z,101287.50
2023-12-02T22:20:31.026Z,101279.66
2023-12-02T22:23:11.457Z,101295.03
2023-12-02T22:25:46.124Z,101291.09
2023-12-02T22:28:22.504Z,101294.56
2023-12-02T22:30:56.984Z,101290.06
2023-12-02T22:33:32.546Z,101294.97
2023-12-02T22:36:10.642Z,101298.44
2023-12-02T22:38:44.414Z,101303.56
2023-12-02T22:41:18.016Z,101306.72
2023-12-02T22:43:52.144Z,101310.41
2023-12-02T22:46:28.458Z,101313.31
2023-12-02T22:49:02.883Z,101318.19
2023-12-02T22:51:39.310Z,101315.47
2023-12-02T22:54:17.877Z,101318.94
2023-12-02T22:56:56.379Z,101324.81
2023-12-02T22:59:31.077Z,101325.31
2023-12-02T23:02:09.185Z,101332.09
2023-12-02T23:04:45.173Z,101325.16
2023-12-02T23:07:59.153Z,101329.09
2023-12-02T23:10:43.570Z,101330.34
2023-12-02T23:13:53.524Z,101324.06
2023-12-02T23:16:41.996Z,101330.28
2023-12-02T23:19:27.158Z,101323.16
2023-12-02T23:22:03.070Z,101330.28
2023-12-02T23:24:36.920Z,101327.88
2023-12-02T23:27:23.234Z,101332.41
2023-12-02T23:29:59.995Z,101327.13
2023-12-02T23:32:33.118Z,101327.44
2023-12-02T23:35:07.109Z,101334.38
2023-12-02T23:37:41.405Z,101333.75
2023-12-02T23:40:24.390Z,101336.31
2023-12-02T23:42:59.012Z,101331.00
2023-12-02T23:45:35.875Z,101342.00
2023-12-02T23:48:08.846Z,101337.78
2023-12-02T23:50:41.814Z,101335.38
2023-12-02T23:53:18.910Z,101335.13
2023-12-02T23:55:52.597Z,101336.78
2023-12-02T23:58:25.847Z,101340.69
